TimeCDT,TemperatureF,Dew PointF,Humidity,Sea Level PressureIn,VisibilityMPH,Wind Direction,Wind SpeedMPH,Gust SpeedMPH,PrecipitationIn,Events,Conditions,WindDirDegrees,DateUTC
12:56 AM,68.0,59.0,73,30.12,10.0,NE,5.8,-,N/A,,Clear,50,2011-10-09 05:56:00
1:56 AM,68.0,57.9,70,30.11,10.0,NE,8.1,-,N/A,,Clear,50,2011-10-09 06:56:00
2:56 AM,66.0,57.9,75,30.09,10.0,NE,10.4,-,N/A,,Partly Cloudy,50,2011-10-09 07:56:00
3:56 AM,66.0,57.0,73,30.08,10.0,NE,10.4,-,N/A,,Partly Cloudy,50,2011-10-09 08:56:00
4:56 AM,64.9,57.0,75,30.09,10.0,NE,9.2,-,N/A,,Clear,50,2011-10-09 09:56:00
5:56 AM,64.9,55.9,73,30.10,10.0,NE,11.5,-,N/A,,Clear,50,2011-10-09 10:56:00
6:56 AM,64.9,55.0,70,30.10,10.0,ENE,11.5,-,N/A,,Scattered Clouds,60,2011-10-09 11:56:00
7:56 AM,66.9,55.9,68,30.10,10.0,NE,10.4,-,N/A,,Partly Cloudy,50,2011-10-09 12:56:00
8:56 AM,71.1,57.0,61,30.11,10.0,ENE,12.7,-,N/A,,Partly Cloudy,70,2011-10-09 13:56:00
9:56 AM,73.9,57.9,57,30.11,10.0,ENE,13.8,-,N/A,,Scattered Clouds,60,2011-10-09 14:56:00
10:56 AM,78.1,59.0,52,30.11,10.0,ENE,11.5,-,N/A,,Scattered Clouds,70,2011-10-09 15:56:00
11:56 AM,79.0,59.0,50,30.09,10.0,ENE,11.5,-,N/A,,Scattered Clouds,70,2011-10-09 16:56:00
12:56 PM,81.0,61.0,50,30.06,10.0,NE,13.8,21.9,N/A,,Mostly Cloudy,50,2011-10-09 17:56:00
1:56 PM,81.0,62.1,52,30.03,10.0,NE,10.4,-,N/A,,Mostly Cloudy,50,2011-10-09 18:56:00
2:56 PM,82.4,62.6,51,30.02,10.0,ENE,10.4,17.3,N/A,,Mostly Cloudy,60,2011-10-09 19:56:00
3:56 PM,80.1,62.1,54,30.00,10.0,ENE,11.5,-,N/A,,Mostly Cloudy,70,2011-10-09 20:56:00
4:56 PM,80.1,62.1,54,29.99,10.0,East,15.0,-,N/A,,Scattered Clouds,80,2011-10-09 21:56:00
5:56 PM,77.0,62.1,60,29.99,10.0,NE,9.2,-,N/A,,Scattered Clouds,40,2011-10-09 22:56:00
6:56 PM,75.0,62.1,64,30.00,10.0,NE,9.2,-,N/A,,Mostly Cloudy,50,2011-10-09 23:56:00
7:56 PM,73.9,62.1,66,30.01,10.0,NE,10.4,23.0,N/A,,Mostly Cloudy,50,2011-10-10 00:56:00
8:56 PM,71.6,62.6,73,30.03,10.0,NE,11.5,-,N/A,,Mostly Cloudy,40,2011-10-10 01:56:00
9:56 PM,69.8,60.8,73,30.04,10.0,NE,9.2,-,N/A,,Scattered Clouds,40,2011-10-10 02:56:00
10:56 PM,69.1,61.0,75,30.03,10.0,NE,9.2,-,N/A,,Scattered Clouds,50,2011-10-10 03:56:00
11:56 PM,69.1,60.1,73,30.01,10.0,NE,10.4,-,N/A,,Overcast,40,2011-10-10 04:56:00